THUNDERSTORM

Not for real navigation. The accuracy of this data is not assured See disclaimer for more information



ICAO NAME COUNTRY WIND Kt GUST Kt VIS m TEMP/DEW C BARO METAR
MUSC 9 0 2000 21/20 29.97 MUSC 252351Z 06009KT 2000 TSRA BKN012CB 21/20 Q1015
VLVT Vientiane Laos 10 0 3000 22/21 29.88 VLVT 252330Z 34010KT 3000 TSRA BKN010 FEW027CB OVC083 22/21 Q1012 CB OVER AD NOSIG
VGHS 5 0 4000 22/19 29.77 VGHS 260000Z 11005KT 4000 HZ BKN010 FEW025CB OVC090 22/19 Q1008 TEMPO TSRA
VTUV 6 0 5000 23/22 29.85 VTUV 252300Z 20006KT 5000 TS VCSH FEW020CB BKN025 23/22 Q1011 TEMPO 5000 -TSRA
WMKL Langkawi Malaysia 2 0 5000 25/24 29.80 WMKL 252300Z VRB02KT 5000 TSRA FEW010 FEW017CB SCT130 BKN260 25/24 Q1009

Show more